sensor_id;sensor_type;location;lat;lon;timestamp;pressure;altitude;pressure_sealevel;temperature;humidity
67931;BME280;63902;52.000;5.954;2023-05-10T00:00:29;100437.56;;;11.99;100.00
67931;BME280;63902;52.000;5.954;2023-05-10T00:01:29;100436.78;;;11.97;100.00
67931;BME280;63902;52.000;5.954;2023-05-10T00:02:30;100426.06;;;11.98;100.00
67931;BME280;63902;52.000;5.954;2023-05-10T00:03:30;100431.53;;;11.95;100.00
67931;BME280;63902;52.000;5.954;2023-05-10T00:04:31;100427.25;;;11.93;100.00
67931;BME280;63902;52.000;5.954;2023-05-10T00:05:31;100434.03;;;11.98;100.00
67931;BME280;63902;52.000;5.954;2023-05-10T00:06:33;100427.06;;;11.96;100.00
67931;BME280;63902;52.000;5.954;2023-05-10T00:07:34;100431.38;;;11.98;100.00
67931;BME280;63902;52.000;5.954;2023-05-10T00:08:34;100420.91;;;11.95;100.00
67931;BME280;63902;52.000;5.954;2023-05-10T00:09:35;100423.50;;;11.97;100.00
67931;BME280;63902;52.000;5.954;2023-05-10T00:10:35;100430.63;;;11.96;100.00
67931;BME280;63902;52.000;5.954;2023-05-10T00:11:36;100423.66;;;11.94;100.00
67931;BME280;63902;52.000;5.954;2023-05-10T00:12:36;100423.50;;;11.97;100.00
67931;BME280;63902;52.000;5.954;2023-05-10T00:13:37;100428.72;;;11.98;100.00
67931;BME280;63902;52.000;5.954;2023-05-10T00:14:38;100423.66;;;11.94;100.00
67931;BME280;63902;52.000;5.954;2023-05-10T00:15:38;100427.00;;;11.97;100.00
67931;BME280;63902;52.000;5.954;2023-05-10T00:16:39;100420.06;;;11.95;100.00
67931;BME280;63902;52.000;5.954;2023-05-10T00:17:39;100434.13;;;11.97;100.00
67931;BME280;63902;52.000;5.954;2023-05-10T00:18:40;100428.66;;;12.00;100.00
67931;BME280;63902;52.000;5.954;2023-05-10T00:19:40;100431.31;;;12.00;100.00
67931;BME280;63902;52.000;5.954;2023-05-10T00:20:41;100433.88;;;12.01;100.00
67931;BME280;63902;52.000;5.954;2023-05-10T00:21:42;100432.16;;;12.00;100.00
67931;BME280;63902;52.000;5.954;2023-05-10T00:22:43;100433.97;;;12.00;100.00
67931;BME280;63902;52.000;5.954;2023-05-10T00:23:43;100418.41;;;11.92;100.00
67931;BME280;63902;52.000;5.954;2023-05-10T00:24:44;100432.16;;;12.00;100.00
67931;BME280;63902;52.000;5.954;2023-05-10T00:25:44;100427.78;;;11.99;100.00
67931;BME280;63902;52.000;5.954;2023-05-10T00:26:45;100434.91;;;11.99;100.00
67931;BME280;63902;52.000;5.954;2023-05-10T00:27:45;100431.38;;;11.98;100.00
67931;BME280;63902;52.000;5.954;2023-05-10T00:28:47;100428.66;;;12.00;100.00
67931;BME280;63902;52.000;5.954;2023-05-10T00:29:47;100427.78;;;11.99;100.00
67931;BME280;63902;52.000;5.954;2023-05-10T00:30:48;100433.97;;;12.00;100.00
67931;BME280;63902;52.000;5.954;2023-05-10T00:31:48;100427.78;;;11.99;100.00
67931;BME280;63902;52.000;5.954;2023-05-10T00:32:49;100416.72;;;11.91;100.00
67931;BME280;63902;52.000;5.954;2023-05-10T00:33:49;100430.53;;;11.98;100.00
67931;BME280;63902;52.000;5.954;2023-05-10T00:34:50;100427.97;;;11.96;100.00
67931;BME280;63902;52.000;5.954;2023-05-10T00:35:50;100412.88;;;11.97;100.00
67931;BME280;63902;52.000;5.954;2023-05-10T00:36:52;100419.97;;;11.96;100.00
67931;BME280;63902;52.000;5.954;2023-05-10T00:37:53;100416.44;;;11.96;100.00
67931;BME280;63902;52.000;5.954;2023-05-10T00:38:53;100418.25;;;11.95;100.00
67931;BME280;63902;52.000;5.954;2023-05-10T00:39:54;100422.66;;;11.96;100.00
67931;BME280;63902;52.000;5.954;2023-05-10T00:40:54;100416.38;;;11.97;100.00
67931;BME280;63902;52.000;5.954;2023-05-10T00:41:55;100413.72;;;11.97;100.00
67931;BME280;63902;52.000;5.954;2023-05-10T00:42:55;100422.47;;;11.99;100.00
67931;BME280;63902;52.000;5.954;2023-05-10T00:43:56;100419.97;;;11.96;100.00
67931;BME280;63902;52.000;5.954;2023-05-10T00:44:56;100419.88;;;11.98;100.00
67931;BME280;63902;52.000;5.954;2023-05-10T00:45:57;100407.88;;;11.91;100.00
67931;BME280;63902;52.000;5.954;2023-05-10T00:46:58;100416.31;;;11.99;100.00
67931;BME280;63902;52.000;5.954;2023-05-10T00:48:00;100400.06;;;11.88;100.00
67931;BME280;63902;52.000;5.954;2023-05-10T00:49:02;100422.47;;;11.99;100.00
67931;BME280;63902;52.000;5.954;2023-05-10T00:50:02;100431.38;;;11.98;100.00
67931;BME280;63902;52.000;5.954;2023-05-10T00:51:04;100423.41;;;11.98;100.00
67931;BME280;63902;52.000;5.954;2023-05-10T00:52:06;100419.97;;;11.96;100.00
67931;BME280;63902;52.000;5.954;2023-05-10T00:53:07;100416.44;;;11.96;100.00
67931;BME280;63902;52.000;5.954;2023-05-10T00:54:09;100425.03;;;12.01;100.00
67931;BME280;63902;52.000;5.954;2023-05-10T00:55:11;100426.78;;;12.02;100.00
67931;BME280;63902;52.000;5.954;2023-05-10T00:56:12;100425.03;;;12.01;100.00
67931;BME280;63902;52.000;5.954;2023-05-10T00:57:13;100419.81;;;11.99;100.00
67931;BME280;63902;52.000;5.954;2023-05-10T00:58:13;100413.72;;;11.97;100.00
67931;BME280;63902;52.000;5.954;2023-05-10T00:59:14;100422.38;;;12.01;100.00
67931;BME280;63902;52.000;5.954;2023-05-10T01:00:15;100421.47;;;12.02;100.00
67931;BME280;63902;52.000;5.954;2023-05-10T01:01:16;100424.13;;;12.02;100.00
67931;BME280;63902;52.000;5.954;2023-05-10T01:02:17;100417.91;;;12.01;100.00
67931;BME280;63902;52.000;5.954;2023-05-10T01:03:17;100414.41;;;12.01;100.00
67931;BME280;63902;52.000;5.954;2023-05-10T01:04:17;100418.88;;;12.00;100.00
67931;BME280;63902;52.000;5.954;2023-05-10T01:05:18;100414.34;;;12.02;100.00
67931;BME280;63902;52.000;5.954;2023-05-10T01:06:19;100396.47;;;11.89;100.00
67931;BME280;63902;52.000;5.954;2023-05-10T01:07:21;100412.75;;;11.98;100.00
67931;BME280;63902;52.000;5.954;2023-05-10T01:08:21;100383.81;;;11.76;100.00
67931;BME280;63902;52.000;5.954;2023-05-10T01:09:22;100409.41;;;11.95;100.00
67931;BME280;63902;52.000;5.954;2023-05-10T01:10:23;100416.31;;;11.99;100.00
67931;BME280;63902;52.000;5.954;2023-05-10T01:11:24;100414.50;;;11.99;100.00
67931;BME280;63902;52.000;5.954;2023-05-10T01:12:24;100406.75;;;11.95;100.00
67931;BME280;63902;52.000;5.954;2023-05-10T01:13:31;100411.06;;;11.97;100.00
67931;BME280;63902;52.000;5.954;2023-05-10T01:14:34;100411.75;;;12.01;100.00
67931;BME280;63902;52.000;5.954;2023-05-10T01:15:35;100409.25;;;11.98;100.00
67931;BME280;63902;52.000;5.954;2023-05-10T01:16:38;100410.91;;;12.00;100.00
67931;BME280;63902;52.000;5.954;2023-05-10T01:17:40;100411.91;;;11.98;100.00
67931;BME280;63902;52.000;5.954;2023-05-10T01:18:43;100410.91;;;12.00;100.00
67931;BME280;63902;52.000;5.954;2023-05-10T01:19:44;100413.56;;;12.00;100.00
67931;BME280;63902;52.000;5.954;2023-05-10T01:20:48;100408.16;;;12.02;100.00
67931;BME280;63902;52.000;5.954;2023-05-10T01:21:55;100407.38;;;12.00;100.00
67931;BME280;63902;52.000;5.954;2023-05-10T01:23:25;100419.72;;;12.01;100.00
67931;BME280;63902;52.000;5.954;2023-05-10T01:24:45;100414.50;;;11.99;100.00
67931;BME280;63902;52.000;5.954;2023-05-10T01:26:12;100414.50;;;11.99;100.00
67931;BME280;63902;52.000;5.954;2023-05-10T01:27:38;100410.03;;;12.00;100.00
67931;BME280;63902;52.000;5.954;2023-05-10T01:28:56;100404.97;;;11.95;100.00
67931;BME280;63902;52.000;5.954;2023-05-10T01:30:36;100419.03;;;11.97;100.00
67931;BME280;63902;52.000;5.954;2023-05-10T01:32:08;100407.72;;;11.94;100.00
67931;BME280;63902;52.000;5.954;2023-05-10T01:33:16;100417.31;;;11.96;100.00
67931;BME280;63902;52.000;5.954;2023-05-10T01:34:23;100415.53;;;11.97;100.00
67931;BME280;63902;52.000;5.954;2023-05-10T01:35:32;100417.31;;;11.96;100.00
67931;BME280;63902;52.000;5.954;2023-05-10T01:36:41;100419.97;;;11.96;100.00
67931;BME280;63902;52.000;5.954;2023-05-10T01:37:46;100420.84;;;11.97;100.00
67931;BME280;63902;52.000;5.954;2023-05-10T01:38:50;100422.53;;;11.98;100.00
67931;BME280;63902;52.000;5.954;2023-05-10T01:39:57;100417.22;;;11.98;100.00
67931;BME280;63902;52.000;5.954;2023-05-10T01:41:08;100424.28;;;11.99;100.00
67931;BME280;63902;52.000;5.954;2023-05-10T01:42:16;100424.19;;;12.00;100.00
67931;BME280;63902;52.000;5.954;2023-05-10T01:43:21;100421.63;;;11.99;100.00
67931;BME280;63902;52.000;5.954;2023-05-10T01:44:29;100422.47;;;11.99;100.00
67931;BME280;63902;52.000;5.954;2023-05-10T01:45:35;100418.88;;;12.00;100.00
67931;BME280;63902;52.000;5.954;2023-05-10T01:46:38;100424.19;;;12.00;100.00
67931;BME280;63902;52.000;5.954;2023-05-10T01:47:42;100426.00;;;12.00;100.00
67931;BME280;63902;52.000;5.954;2023-05-10T01:48:47;100395.81;;;11.83;100.00
67931;BME280;63902;52.000;5.954;2023-05-10T01:49:50;100423.34;;;12.00;100.00
67931;BME280;63902;52.000;5.954;2023-05-10T01:50:52;100402.41;;;11.94;100.00
67931;BME280;63902;52.000;5.954;2023-05-10T01:51:54;100412.59;;;12.01;100.00
67931;BME280;63902;52.000;5.954;2023-05-10T01:53:00;100410.38;;;11.94;100.00
67931;BME280;63902;52.000;5.954;2023-05-10T01:54:02;100422.38;;;12.01;100.00
67931;BME280;63902;52.000;5.954;2023-05-10T01:55:07;100412.69;;;12.00;100.00
67931;BME280;63902;52.000;5.954;2023-05-10T01:56:09;100411.84;;;11.99;100.00
67931;BME280;63902;52.000;5.954;2023-05-10T01:57:11;100415.19;;;12.03;100.00
67931;BME280;63902;52.000;5.954;2023-05-10T01:58:27;100422.22;;;12.04;100.00
67931;BME280;63902;52.000;5.954;2023-05-10T01:59:30;100423.22;;;12.01;100.00
67931;BME280;63902;52.000;5.954;2023-05-10T02:00:34;100424.97;;;12.02;100.00
67931;BME280;63902;52.000;5.954;2023-05-10T02:01:36;100424.97;;;12.02;100.00
67931;BME280;63902;52.000;5.954;2023-05-10T02:02:39;100422.31;;;12.02;100.00
67931;BME280;63902;52.000;5.954;2023-05-10T02:03:42;100411.84;;;11.99;100.00
67931;BME280;63902;52.000;5.954;2023-05-10T02:04:44;100405.75;;;11.97;100.00
67931;BME280;63902;52.000;5.954;2023-05-10T02:05:48;100417.84;;;12.03;100.00
67931;BME280;63902;52.000;5.954;2023-05-10T02:06:51;100427.53;;;12.04;100.00
67931;BME280;63902;52.000;5.954;2023-05-10T02:07:53;100427.53;;;12.04;100.00
67931;BME280;63902;52.000;5.954;2023-05-10T02:08:55;100419.47;;;12.05;100.00
67931;BME280;63902;52.000;5.954;2023-05-10T02:09:56;100427.47;;;12.05;100.00
67931;BME280;63902;52.000;5.954;2023-05-10T02:10:58;100425.66;;;12.06;100.00
67931;BME280;63902;52.000;5.954;2023-05-10T02:12:01;100417.16;;;11.99;100.00
67931;BME280;63902;52.000;5.954;2023-05-10T02:13:03;100426.50;;;12.06;100.00
67931;BME280;63902;52.000;5.954;2023-05-10T02:14:07;100423.16;;;12.03;100.00
67931;BME280;63902;52.000;5.954;2023-05-10T02:15:11;100429.09;;;12.08;100.00
67931;BME280;63902;52.000;5.954;2023-05-10T02:16:13;100431.75;;;12.08;100.00
67931;BME280;63902;52.000;5.954;2023-05-10T02:17:15;100425.66;;;12.06;100.00
67931;BME280;63902;52.000;5.954;2023-05-10T02:18:17;100423.78;;;12.08;100.00
67931;BME280;63902;52.000;5.954;2023-05-10T02:19:19;100426.44;;;12.08;100.00
67931;BME280;63902;52.000;5.954;2023-05-10T02:20:23;100426.44;;;12.08;100.00
67931;BME280;63902;52.000;5.954;2023-05-10T02:21:25;100424.63;;;12.08;100.00
67931;BME280;63902;52.000;5.954;2023-05-10T02:22:27;100426.44;;;12.08;100.00
67931;BME280;63902;52.000;5.954;2023-05-10T02:23:29;100429.88;;;12.10;100.00
67931;BME280;63902;52.000;5.954;2023-05-10T02:24:32;100429.88;;;12.10;100.00
67931;BME280;63902;52.000;5.954;2023-05-10T02:25:34;100427.22;;;12.10;100.00
67931;BME280;63902;52.000;5.954;2023-05-10T02:26:36;100421.28;;;12.05;100.00
67931;BME280;63902;52.000;5.954;2023-05-10T02:27:38;100429.88;;;12.10;100.00
67931;BME280;63902;52.000;5.954;2023-05-10T02:28:42;100422.81;;;12.09;100.00
67931;BME280;63902;52.000;5.954;2023-05-10T02:29:43;100423.63;;;12.11;100.00
67931;BME280;63902;52.000;5.954;2023-05-10T02:30:45;100428.06;;;12.11;100.00
67931;BME280;63902;52.000;5.954;2023-05-10T02:31:47;100424.63;;;12.08;100.00
67931;BME280;63902;52.000;5.954;2023-05-10T02:32:48;100439.56;;;12.11;100.00
67931;BME280;63902;52.000;5.954;2023-05-10T02:33:49;100431.59;;;12.11;100.00
67931;BME280;63902;52.000;5.954;2023-05-10T02:34:52;100436.91;;;12.11;100.00
67931;BME280;63902;52.000;5.954;2023-05-10T02:35:53;100436.06;;;12.11;100.00
67931;BME280;63902;52.000;5.954;2023-05-10T02:36:55;100435.28;;;12.08;100.00
67931;BME280;63902;52.000;5.954;2023-05-10T02:37:57;100444.88;;;12.11;100.00
67931;BME280;63902;52.000;5.954;2023-05-10T02:39:01;100438.94;;;12.06;100.00
67931;BME280;63902;52.000;5.954;2023-05-10T02:40:03;100440.66;;;12.07;100.00
67931;BME280;63902;52.000;5.954;2023-05-10T02:41:05;100444.09;;;12.09;100.00
67931;BME280;63902;52.000;5.954;2023-05-10T02:42:08;100445.84;;;12.10;100.00
67931;BME280;63902;52.000;5.954;2023-05-10T02:43:13;100446.75;;;12.09;100.00
67931;BME280;63902;52.000;5.954;2023-05-10T02:44:15;100445.84;;;12.10;100.00
67931;BME280;63902;52.000;5.954;2023-05-10T02:45:20;100444.03;;;12.11;100.00
67931;BME280;63902;52.000;5.954;2023-05-10T02:46:22;100444.09;;;12.09;100.00
67931;BME280;63902;52.000;5.954;2023-05-10T02:47:22;100436.38;;;12.04;100.00
67931;BME280;63902;52.000;5.954;2023-05-10T02:48:23;100450.25;;;12.09;100.00
67931;BME280;63902;52.000;5.954;2023-05-10T02:49:23;100442.38;;;12.08;100.00
67931;BME280;63902;52.000;5.954;2023-05-10T02:50:27;100443.41;;;12.05;100.00
67931;BME280;63902;52.000;5.954;2023-05-10T02:51:31;100443.41;;;12.05;100.00
67931;BME280;63902;52.000;5.954;2023-05-10T02:52:39;100444.25;;;12.06;100.00
67931;BME280;63902;52.000;5.954;2023-05-10T02:53:42;100442.56;;;12.05;100.00
67931;BME280;63902;52.000;5.954;2023-05-10T02:54:45;100447.88;;;12.05;100.00
67931;BME280;63902;52.000;5.954;2023-05-10T02:55:50;100452.34;;;12.04;100.00
67931;BME280;63902;52.000;5.954;2023-05-10T02:56:57;100446.13;;;12.04;100.00
67931;BME280;63902;52.000;5.954;2023-05-10T02:58:00;100445.22;;;12.05;100.00
67931;BME280;63902;52.000;5.954;2023-05-10T02:59:01;100447.88;;;12.05;100.00
67931;BME280;63902;52.000;5.954;2023-05-10T03:00:02;100444.25;;;12.06;100.00
67931;BME280;63902;52.000;5.954;2023-05-10T03:01:02;100447.88;;;12.05;100.00
67931;BME280;63902;52.000;5.954;2023-05-10T03:02:03;100447.88;;;12.05;100.00
67931;BME280;63902;52.000;5.954;2023-05-10T03:03:04;100440.91;;;12.02;100.00
67931;BME280;63902;52.000;5.954;2023-05-10T03:04:05;100451.38;;;12.05;100.00
67931;BME280;63902;52.000;5.954;2023-05-10T03:05:05;100447.03;;;12.04;100.00
67931;BME280;63902;52.000;5.954;2023-05-10T03:06:07;100443.41;;;12.05;100.00
67931;BME280;63902;52.000;5.954;2023-05-10T03:07:08;100449.56;;;12.06;100.00
67931;BME280;63902;52.000;5.954;2023-05-10T03:08:09;100447.88;;;12.05;100.00
67931;BME280;63902;52.000;5.954;2023-05-10T03:09:10;100446.06;;;12.05;100.00
67931;BME280;63902;52.000;5.954;2023-05-10T03:10:12;100440.75;;;12.05;100.00
67931;BME280;63902;52.000;5.954;2023-05-10T03:11:27;100443.31;;;12.07;100.00
67931;BME280;63902;52.000;5.954;2023-05-10T03:12:38;100445.97;;;12.07;100.00
67931;BME280;63902;52.000;5.954;2023-05-10T03:13:47;100446.84;;;12.07;100.00
67931;BME280;63902;52.000;5.954;2023-05-10T03:14:59;100448.72;;;12.05;100.00
67931;BME280;63902;52.000;5.954;2023-05-10T03:16:07;100442.56;;;12.05;100.00
67931;BME280;63902;52.000;5.954;2023-05-10T03:17:11;100445.28;;;12.03;100.00
67931;BME280;63902;52.000;5.954;2023-05-10T03:18:18;100447.88;;;12.05;100.00
67931;BME280;63902;52.000;5.954;2023-05-10T03:19:26;100454.09;;;12.04;100.00
67931;BME280;63902;52.000;5.954;2023-05-10T03:20:30;100454.22;;;12.02;100.00
67931;BME280;63902;52.000;5.954;2023-05-10T03:21:34;100457.88;;;12.00;100.00
67931;BME280;63902;52.000;5.954;2023-05-10T03:22:51;100458.66;;;12.02;100.00
67931;BME280;63902;52.000;5.954;2023-05-10T03:23:56;100452.47;;;12.01;100.00
67931;BME280;63902;52.000;5.954;2023-05-10T03:25:00;100455.13;;;12.01;100.00
67931;BME280;63902;52.000;5.954;2023-05-10T03:26:02;100449.91;;;12.00;100.00
67931;BME280;63902;52.000;5.954;2023-05-10T03:27:04;100451.78;;;11.98;100.00
67931;BME280;63902;52.000;5.954;2023-05-10T03:28:06;100455.38;;;11.97;100.00
67931;BME280;63902;52.000;5.954;2023-05-10T03:29:08;100431.22;;;11.84;100.00
67931;BME280;63902;52.000;5.954;2023-05-10T03:30:12;100451.78;;;11.98;100.00
67931;BME280;63902;52.000;5.954;2023-05-10T03:31:13;100456.47;;;11.93;100.00
67931;BME280;63902;52.000;5.954;2023-05-10T03:32:13;100446.09;;;11.88;100.00
67931;BME280;63902;52.000;5.954;2023-05-10T03:33:14;100455.72;;;11.91;100.00
67931;BME280;63902;52.000;5.954;2023-05-10T03:34:14;100458.22;;;11.94;100.00
67931;BME280;63902;52.000;5.954;2023-05-10T03:35:15;100451.25;;;11.91;100.00
67931;BME280;63902;52.000;5.954;2023-05-10T03:36:16;100456.47;;;11.93;100.00
67931;BME280;63902;52.000;5.954;2023-05-10T03:37:18;100464.28;;;11.96;100.00
67931;BME280;63902;52.000;5.954;2023-05-10T03:38:18;100465.22;;;11.95;100.00
67931;BME280;63902;52.000;5.954;2023-05-10T03:39:19;100462.56;;;11.95;100.00
67931;BME280;63902;52.000;5.954;2023-05-10T03:40:19;100454.94;;;11.89;100.00
67931;BME280;63902;52.000;5.954;2023-05-10T03:41:20;100458.38;;;11.91;100.00
67931;BME280;63902;52.000;5.954;2023-05-10T03:42:20;100460.09;;;11.92;100.00
67931;BME280;63902;52.000;5.954;2023-05-10T03:43:21;100456.75;;;11.88;100.00
67931;BME280;63902;52.000;5.954;2023-05-10T03:44:22;100462.81;;;11.90;100.00
67931;BME280;63902;52.000;5.954;2023-05-10T03:45:22;100464.72;;;11.88;100.00
67931;BME280;63902;52.000;5.954;2023-05-10T03:46:23;100459.47;;;11.86;100.00
67931;BME280;63902;52.000;5.954;2023-05-10T03:47:23;100460.41;;;11.85;100.00
67931;BME280;63902;52.000;5.954;2023-05-10T03:48:24;100466.50;;;11.88;100.00
67931;BME280;63902;52.000;5.954;2023-05-10T03:49:24;100462.13;;;11.86;100.00
67931;BME280;63902;52.000;5.954;2023-05-10T03:50:25;100455.09;;;11.85;100.00
67931;BME280;63902;52.000;5.954;2023-05-10T03:51:25;100462.19;;;11.85;100.00
67931;BME280;63902;52.000;5.954;2023-05-10T03:52:27;100463.06;;;11.85;100.00
67931;BME280;63902;52.000;5.954;2023-05-10T03:53:28;100467.56;;;11.83;100.00
67931;BME280;63902;52.000;5.954;2023-05-10T03:54:28;100473.81;;;11.82;100.00
67931;BME280;63902;52.000;5.954;2023-05-10T03:55:29;100476.53;;;11.81;100.00
67931;BME280;63902;52.000;5.954;2023-05-10T03:56:29;100473.03;;;11.80;100.00
67931;BME280;63902;52.000;5.954;2023-05-10T03:57:29;100485.47;;;11.80;100.00
67931;BME280;63902;52.000;5.954;2023-05-10T03:58:30;100477.56;;;11.78;100.00
67931;BME280;63902;52.000;5.954;2023-05-10T03:59:30;100482.97;;;11.77;100.00
67931;BME280;63902;52.000;5.954;2023-05-10T04:00:31;100476.72;;;11.78;100.00
67931;BME280;63902;52.000;5.954;2023-05-10T04:01:31;100481.16;;;11.77;100.00
67931;BME280;63902;52.000;5.954;2023-05-10T04:02:32;100482.97;;;11.77;100.00
67931;BME280;63902;52.000;5.954;2023-05-10T04:03:32;100484.78;;;11.76;100.00
67931;BME280;63902;52.000;5.954;2023-05-10T04:04:33;100484.00;;;11.74;100.00
67931;BME280;63902;52.000;5.954;2023-05-10T04:05:33;100491.09;;;11.74;100.00
67931;BME280;63902;52.000;5.954;2023-05-10T04:06:34;100486.81;;;11.71;100.00
67931;BME280;63902;52.000;5.954;2023-05-10T04:07:35;100489.53;;;11.70;100.00
67931;BME280;63902;52.000;5.954;2023-05-10T04:08:36;100490.53;;;11.67;100.00
67931;BME280;63902;52.000;5.954;2023-05-10T04:09:36;100492.44;;;11.65;100.00
67931;BME280;63902;52.000;5.954;2023-05-10T04:10:37;100482.94;;;11.59;100.00
67931;BME280;63902;52.000;5.954;2023-05-10T04:11:37;100493.34;;;11.64;100.00
67931;BME280;63902;52.000;5.954;2023-05-10T04:12:38;100488.19;;;11.61;100.00
67931;BME280;63902;52.000;5.954;2023-05-10T04:13:38;100491.72;;;11.61;100.00
67931;BME280;63902;52.000;5.954;2023-05-10T04:14:39;100484.84;;;11.57;100.00
67931;BME280;63902;52.000;5.954;2023-05-10T04:15:39;100492.72;;;11.59;100.00
67931;BME280;63902;52.000;5.954;2023-05-10T04:16:40;100482.25;;;11.56;100.00
67931;BME280;63902;52.000;5.954;2023-05-10T04:17:40;100491.00;;;11.58;100.00
67931;BME280;63902;52.000;5.954;2023-05-10T04:18:41;100488.34;;;11.58;100.00
67931;BME280;63902;52.000;5.954;2023-05-10T04:19:41;100489.38;;;11.55;100.00
67931;BME280;63902;52.000;5.954;2023-05-10T04:20:42;100486.03;;;11.52;100.00
67931;BME280;63902;52.000;5.954;2023-05-10T04:21:43;100480.53;;;11.55;100.00
67931;BME280;63902;52.000;5.954;2023-05-10T04:22:44;100482.41;;;11.53;100.00
67931;BME280;63902;52.000;5.954;2023-05-10T04:23:45;100492.88;;;11.56;100.00
67931;BME280;63902;52.000;5.954;2023-05-10T04:24:45;100484.13;;;11.54;100.00
67931;BME280;63902;52.000;5.954;2023-05-10T04:25:46;100481.47;;;11.54;100.00
67931;BME280;63902;52.000;5.954;2023-05-10T04:26:46;100497.97;;;11.60;100.00
67931;BME280;63902;52.000;5.954;2023-05-10T04:27:47;100490.16;;;11.57;100.00
67931;BME280;63902;52.000;5.954;2023-05-10T04:28:47;100487.41;;;11.59;100.00
67931;BME280;63902;52.000;5.954;2023-05-10T04:29:48;100494.47;;;11.60;100.00
67931;BME280;63902;52.000;5.954;2023-05-10T04:30:48;100492.66;;;11.60;100.00
67931;BME280;63902;52.000;5.954;2023-05-10T04:31:49;100500.63;;;11.60;100.00
67931;BME280;63902;52.000;5.954;2023-05-10T04:32:49;100497.97;;;11.60;100.00
67931;BME280;63902;52.000;5.954;2023-05-10T04:33:50;100491.00;;;11.58;100.00
67931;BME280;63902;52.000;5.954;2023-05-10T04:34:50;100498.75;;;11.62;100.00
67931;BME280;63902;52.000;5.954;2023-05-10T04:35:51;100496.22;;;11.59;100.00
67931;BME280;63902;52.000;5.954;2023-05-10T04:36:51;100499.78;;;11.60;100.00
67931;BME280;63902;52.000;5.954;2023-05-10T04:37:53;100471.31;;;11.45;100.00
67931;BME280;63902;52.000;5.954;2023-05-10T04:38:54;100469.50;;;11.45;100.00
67931;BME280;63902;52.000;5.954;2023-05-10T04:39:54;100492.03;;;11.55;100.00
67931;BME280;63902;52.000;5.954;2023-05-10T04:41:03;100496.22;;;11.59;100.00
67931;BME280;63902;52.000;5.954;2023-05-10T04:42:04;100494.47;;;11.60;100.00
67931;BME280;63902;52.000;5.954;2023-05-10T04:43:04;100499.78;;;11.60;100.00
67931;BME280;63902;52.000;5.954;2023-05-10T04:44:05;100499.13;;;11.55;100.00
67931;BME280;63902;52.000;5.954;2023-05-10T04:45:06;100496.47;;;11.55;100.00
67931;BME280;63902;52.000;5.954;2023-05-10T04:46:07;100508.97;;;11.53;100.00
67931;BME280;63902;52.000;5.954;2023-05-10T04:47:07;100505.47;;;11.52;100.00
67931;BME280;63902;52.000;5.954;2023-05-10T04:48:08;100508.97;;;11.53;100.00
67931;BME280;63902;52.000;5.954;2023-05-10T04:49:08;100499.63;;;11.46;100.00
67931;BME280;63902;52.000;5.954;2023-05-10T04:50:09;100508.13;;;11.52;100.00
67931;BME280;63902;52.000;5.954;2023-05-10T04:51:09;100500.38;;;11.48;100.00
67931;BME280;63902;52.000;5.954;2023-05-10T04:52:10;100508.13;;;11.52;100.00
67931;BME280;63902;52.000;5.954;2023-05-10T04:53:12;100507.28;;;11.52;100.00
67931;BME280;63902;52.000;5.954;2023-05-10T04:54:12;100507.28;;;11.52;100.00
67931;BME280;63902;52.000;5.954;2023-05-10T04:55:13;100507.31;;;11.50;100.00
67931;BME280;63902;52.000;5.954;2023-05-10T04:56:13;100490.06;;;11.41;100.00
67931;BME280;63902;52.000;5.954;2023-05-10T04:57:14;100500.38;;;11.48;100.00
67931;BME280;63902;52.000;5.954;2023-05-10T04:58:15;100491.72;;;11.44;100.00
67931;BME280;63902;52.000;5.954;2023-05-10T04:59:15;100502.28;;;11.46;100.00
67931;BME280;63902;52.000;5.954;2023-05-10T05:00:16;100510.94;;;11.49;100.00
67931;BME280;63902;52.000;5.954;2023-05-10T05:01:17;100512.72;;;11.49;100.00
67931;BME280;63902;52.000;5.954;2023-05-10T05:02:17;100502.28;;;11.46;100.00
67931;BME280;63902;52.000;5.954;2023-05-10T05:03:18;100509.97;;;11.50;100.00
67931;BME280;63902;52.000;5.954;2023-05-10T05:04:18;100512.56;;;11.52;100.00
67931;BME280;63902;52.000;5.954;2023-05-10T05:05:19;100514.28;;;11.53;100.00
67931;BME280;63902;52.000;5.954;2023-05-10T05:06:19;100516.88;;;11.54;100.00
67931;BME280;63902;52.000;5.954;2023-05-10T05:07:20;100516.00;;;11.54;100.00
67931;BME280;63902;52.000;5.954;2023-05-10T05:08:22;100500.38;;;11.48;100.00
67931;BME280;63902;52.000;5.954;2023-05-10T05:09:22;100510.69;;;11.54;100.00
67931;BME280;63902;52.000;5.954;2023-05-10T05:10:23;100507.97;;;11.55;100.00
67931;BME280;63902;52.000;5.954;2023-05-10T05:11:23;100508.81;;;11.56;100.00
67931;BME280;63902;52.000;5.954;2023-05-10T05:12:24;100507.13;;;11.55;100.00
67931;BME280;63902;52.000;5.954;2023-05-10T05:13:24;100502.66;;;11.55;100.00
67931;BME280;63902;52.000;5.954;2023-05-10T05:14:25;100508.75;;;11.57;100.00
67931;BME280;63902;52.000;5.954;2023-05-10T05:15:26;100512.28;;;11.58;100.00
67931;BME280;63902;52.000;5.954;2023-05-10T05:16:26;100509.78;;;11.55;100.00
67931;BME280;63902;52.000;5.954;2023-05-10T05:17:27;100517.56;;;11.58;100.00
67931;BME280;63902;52.000;5.954;2023-05-10T05:18:28;100513.28;;;11.55;100.00
67931;BME280;63902;52.000;5.954;2023-05-10T05:19:30;100514.06;;;11.57;100.00
67931;BME280;63902;52.000;5.954;2023-05-10T05:20:32;100525.38;;;11.61;100.00
67931;BME280;63902;52.000;5.954;2023-05-10T05:21:32;100514.91;;;11.58;100.00
67931;BME280;63902;52.000;5.954;2023-05-10T05:22:33;100528.00;;;11.62;100.00